createdAt,value
2023-02-27T00:00:04.589Z,97351.72
2023-02-27T00:02:31.117Z,97341.00
2023-02-27T00:04:57.638Z,97337.78
2023-02-27T00:07:24.143Z,97317.84
2023-02-27T00:09:50.579Z,97328.03
2023-02-27T00:12:17.045Z,97333.72
2023-02-27T00:14:43.548Z,97343.50
2023-02-27T00:17:10.084Z,97336.56
2023-02-27T00:19:36.680Z,97347.13
2023-02-27T00:22:03.208Z,97338.59
2023-02-27T00:24:29.757Z,97359.31
2023-02-27T00:26:56.315Z,97341.25
2023-02-27T00:29:22.795Z,97359.53
2023-02-27T00:31:49.330Z,97367.03
2023-02-27T00:34:15.813Z,97358.72
2023-02-27T00:36:42.249Z,97343.66
2023-02-27T00:39:09.067Z,97340.84
2023-02-27T00:41:35.558Z,97343.09
2023-02-27T00:44:01.985Z,97369.47
2023-02-27T00:46:28.589Z,97355.84
2023-02-27T00:48:55.092Z,97354.25
2023-02-27T00:51:21.523Z,97351.19
2023-02-27T00:53:47.945Z,97381.88
2023-02-27T00:56:14.401Z,97361.78
2023-02-27T00:58:40.879Z,97346.31
2023-02-27T01:01:07.372Z,97354.88
2023-02-27T01:03:33.842Z,97348.75
2023-02-27T01:06:00.382Z,97359.75
2023-02-27T01:08:26.818Z,97361.38
2023-02-27T01:10:56.295Z,97356.06
2023-02-27T01:13:22.899Z,97364.81
2023-02-27T01:15:49.366Z,97364.19
2023-02-27T01:18:15.917Z,97376.00
2023-02-27T01:20:42.354Z,97350.78
2023-02-27T01:23:08.829Z,97361.78
2023-02-27T01:25:35.284Z,97345.91
2023-02-27T01:28:01.761Z,97394.69
2023-02-27T01:30:28.238Z,97362.78
2023-02-27T01:32:54.804Z,97365.44
2023-02-27T01:35:21.269Z,97358.50
2023-02-27T01:37:47.672Z,97358.72
2023-02-27T01:40:14.344Z,97361.75
2023-02-27T01:42:40.842Z,97345.50
2023-02-27T01:45:07.298Z,97348.56
2023-02-27T01:47:33.859Z,97348.97
2023-02-27T01:50:00.400Z,97363.38
2023-02-27T01:52:26.852Z,97362.97
2023-02-27T01:54:53.416Z,97356.28
2023-02-27T01:57:19.890Z,97384.75
2023-02-27T01:59:46.458Z,97352.63
2023-02-27T02:02:14.683Z,97370.91
2023-02-27T02:04:41.314Z,97357.69
2023-02-27T02:07:08.765Z,97385.16
2023-02-27T02:09:39.908Z,97396.94
2023-02-27T02:12:06.399Z,97364.81
2023-02-27T02:14:32.870Z,97387.78
2023-02-27T02:17:17.791Z,97392.84
2023-02-27T02:19:59.475Z,97372.53
2023-02-27T02:22:25.859Z,97373.78
2023-02-27T02:24:52.252Z,97377.81
2023-02-27T02:27:22.867Z,97385.97
2023-02-27T02:29:58.457Z,97379.06
2023-02-27T02:32:43.872Z,97372.13
2023-02-27T02:35:25.052Z,97368.66
2023-02-27T02:37:54.642Z,97352.41
2023-02-27T02:40:37.961Z,97370.50
2023-02-27T02:43:10.581Z,97353.22
2023-02-27T02:45:37.065Z,97376.81
2023-02-27T02:48:12.168Z,97367.06
2023-02-27T02:50:44.656Z,97347.34
2023-02-27T02:53:14.179Z,97361.34
2023-02-27T02:55:40.796Z,97378.84
2023-02-27T02:58:12.925Z,97367.63
2023-02-27T03:00:56.583Z,97367.25
2023-02-27T03:03:25.783Z,97379.88
2023-02-27T03:05:57.050Z,97386.56
2023-02-27T03:08:25.071Z,97394.47
2023-02-27T03:10:54.484Z,97379.06
2023-02-27T03:13:22.445Z,97390.63
2023-02-27T03:15:51.056Z,97374.56
2023-02-27T03:18:18.881Z,97377.00
2023-02-27T03:21:05.015Z,97359.31
2023-02-27T03:23:35.949Z,97370.69
2023-02-27T03:26:02.603Z,97393.88
2023-02-27T03:28:29.612Z,97387.38
2023-02-27T03:30:57.493Z,97379.66
2023-02-27T03:33:23.887Z,97405.69
2023-02-27T03:35:51.924Z,97389.41
2023-02-27T03:38:37.260Z,97381.88
2023-02-27T03:41:09.379Z,97371.09
2023-02-27T03:43:46.593Z,97375.16
2023-02-27T03:46:13.466Z,97386.16
2023-02-27T03:48:40.075Z,97403.63
2023-02-27T03:51:06.589Z,97406.50
2023-02-27T03:53:35.938Z,97383.50
2023-02-27T03:56:03.004Z,97392.88
2023-02-27T03:58:29.440Z,97386.75
2023-02-27T04:00:56.042Z,97389.19
2023-02-27T04:03:22.451Z,97375.56
2023-02-27T04:05:48.884Z,97419.88
2023-02-27T04:08:35.504Z,97426.41
2023-02-27T04:11:07.968Z,97403.22
2023-02-27T04:13:39.833Z,97419.72
2023-02-27T04:16:18.610Z,97390.00
2023-02-27T04:19:02.216Z,97403.03
2023-02-27T04:21:43.994Z,97396.53
2023-02-27T04:24:30.744Z,97415.84
2023-02-27T04:26:59.030Z,97401.59
2023-02-27T04:29:29.263Z,97419.94
2023-02-27T04:32:08.221Z,97405.28
2023-02-27T04:34:34.746Z,97423.16
2023-02-27T04:37:02.204Z,97404.47
2023-02-27T04:39:30.393Z,97421.94
2023-02-27T04:41:59.627Z,97390.63
2023-02-27T04:44:26.166Z,97427.00
2023-02-27T04:46:52.693Z,97396.94
2023-02-27T04:49:19.290Z,97398.97
2023-02-27T04:51:47.962Z,97407.09
2023-02-27T04:54:15.552Z,97400.38
2023-02-27T04:56:43.491Z,97434.13
2023-02-27T04:59:11.051Z,97414.41
2023-02-27T05:01:45.661Z,97430.50
2023-02-27T05:04:13.558Z,97417.06
2023-02-27T05:06:40.495Z,97443.72
2023-02-27T05:09:06.995Z,97419.50
2023-02-27T05:11:52.116Z,97414.41
2023-02-27T05:14:19.846Z,97427.84
2023-02-27T05:16:48.982Z,97430.69
2023-02-27T05:19:15.415Z,97414.81
2023-02-27T05:21:43.816Z,97425.22
2023-02-27T05:24:22.550Z,97430.50
2023-02-27T05:27:03.152Z,97420.31
2023-02-27T05:29:29.776Z,97429.06
2023-02-27T05:32:05.136Z,97440.66
2023-02-27T05:34:54.732Z,97412.19
2023-02-27T05:37:28.971Z,97438.22
2023-02-27T05:39:55.434Z,97414.63
2023-02-27T05:42:26.486Z,97436.97
2023-02-27T05:44:55.445Z,97432.09
2023-02-27T05:47:22.590Z,97430.88
2023-02-27T05:49:53.084Z,97403.66
2023-02-27T05:52:20.454Z,97428.44
2023-02-27T05:54:48.763Z,97448.34
2023-02-27T05:57:16.568Z,97397.53
2023-02-27T05:59:46.045Z,97413.19
2023-02-27T06:02:12.582Z,97429.66
2023-02-27T06:04:38.989Z,97428.81
2023-02-27T06:07:08.075Z,97426.41
2023-02-27T06:09:35.112Z,97424.56
2023-02-27T06:12:01.674Z,97455.06
2023-02-27T06:14:28.250Z,97446.13
2023-02-27T06:16:54.748Z,97444.31
2023-02-27T06:19:21.137Z,97428.84
2023-02-27T06:21:48.514Z,97431.09
2023-02-27T06:24:14.968Z,97451.00
2023-02-27T06:26:41.479Z,97441.44
2023-02-27T06:29:07.847Z,97429.25
2023-02-27T06:31:34.278Z,97446.97
2023-02-27T06:34:00.690Z,97478.25
2023-02-27T06:36:27.833Z,97438.63
2023-02-27T06:38:54.544Z,97452.44
2023-02-27T06:41:21.015Z,97433.53
2023-02-27T06:43:47.460Z,97468.72
2023-02-27T06:46:13.984Z,97445.13
2023-02-27T06:48:40.505Z,97453.25
2023-02-27T06:51:06.869Z,97470.16
2023-02-27T06:53:33.657Z,97443.91
2023-02-27T06:56:00.168Z,97458.16
2023-02-27T06:58:26.629Z,97449.19
2023-02-27T07:00:53.042Z,97461.19
2023-02-27T07:03:19.584Z,97458.97
2023-02-27T07:05:45.972Z,97465.88
2023-02-27T07:08:12.565Z,97453.84
2023-02-27T07:10:38.999Z,97465.44
2023-02-27T07:13:05.531Z,97484.16
2023-02-27T07:15:32.034Z,97463.41
2023-02-27T07:17:58.478Z,97464.44
2023-02-27T07:20:24.867Z,97491.47
2023-02-27T07:22:52.535Z,97494.94
2023-02-27T07:25:19.085Z,97466.28
2023-02-27T07:27:47.531Z,97480.72
2023-02-27T07:30:14.190Z,97502.06
2023-02-27T07:32:40.612Z,97462.38
2023-02-27T07:35:07.438Z,97486.56
2023-02-27T07:37:33.918Z,97503.03
2023-02-27T07:40:00.309Z,97477.81
2023-02-27T07:42:26.727Z,97499.56
2023-02-27T07:44:53.580Z,97465.38
2023-02-27T07:47:20.531Z,97475.69
2023-02-27T07:49:47.122Z,97480.38
2023-02-27T07:52:14.464Z,97480.78
2023-02-27T07:54:41.793Z,97503.94
2023-02-27T07:57:08.233Z,97499.56
2023-02-27T08:02:02.122Z,97495.97
2023-02-27T08:04:30.389Z,97484.47
2023-02-27T08:06:56.902Z,97483.34
2023-02-27T08:09:24.443Z,97487.84
2023-02-27T08:11:50.940Z,97483.66
2023-02-27T08:14:17.369Z,97504.28
2023-02-27T08:16:43.787Z,97514.47
2023-02-27T08:19:11.781Z,97504.34
2023-02-27T08:21:38.142Z,97505.13
2023-02-27T08:24:05.471Z,97502.03
2023-02-27T08:26:32.015Z,97497.25
2023-02-27T08:28:58.517Z,97520.66
2023-02-27T08:31:25.062Z,97506.00
2023-02-27T08:34:04.305Z,97501.22
2023-02-27T08:36:35.634Z,97491.41
2023-02-27T08:39:02.111Z,97524.00
2023-02-27T08:41:28.841Z,97514.38
2023-02-27T08:43:55.371Z,97512.97
2023-02-27T08:46:21.863Z,97526.94
2023-02-27T08:48:48.324Z,97530.97
2023-02-27T08:51:14.824Z,97524.16
2023-02-27T08:53:41.212Z,97515.66
2023-02-27T08:56:10.236Z,97503.91
2023-02-27T08:58:36.727Z,97527.91
2023-02-27T09:01:03.280Z,97506.16
2023-02-27T09:03:30.410Z,97537.91
2023-02-27T09:05:56.866Z,97520.25
2023-02-27T09:08:23.396Z,97523.44
2023-02-27T09:10:49.906Z,97523.41
2023-02-27T09:13:16.552Z,97551.38
2023-02-27T09:15:43.085Z,97558.31
2023-02-27T09:18:09.531Z,97529.59
2023-02-27T09:20:38.051Z,97531.03
2023-02-27T09:23:04.623Z,97576.50
2023-02-27T09:25:31.157Z,97571.75
2023-02-27T09:27:57.591Z,97557.59
2023-02-27T09:30:24.012Z,97552.50
2023-02-27T09:32:50.897Z,97557.53
2023-02-27T09:35:17.531Z,97571.28
2023-02-27T09:37:44.298Z,97566.97
2023-02-27T09:40:13.145Z,97551.22
2023-02-27T09:42:41.178Z,97559.75
2023-02-27T09:45:07.953Z,97569.72
2023-02-27T09:47:38.821Z,97550.47
2023-02-27T09:50:06.308Z,97558.25
2023-02-27T09:52:33.123Z,97550.19
2023-02-27T09:54:59.543Z,97571.44
2023-02-27T09:57:31.865Z,97559.50
2023-02-27T10:00:02.620Z,97570.88
2023-02-27T10:02:35.176Z,97557.69
2023-02-27T10:05:21.281Z,97579.72
2023-02-27T10:08:06.194Z,97588.59
2023-02-27T10:10:35.117Z,97565.41
2023-02-27T10:13:14.118Z,97579.91
2023-02-27T10:15:50.355Z,97579.56
2023-02-27T10:18:26.902Z,97573.28
2023-02-27T10:20:58.153Z,97610.84
2023-02-27T10:23:33.850Z,97598.97
2023-02-27T10:26:00.341Z,97603.19
2023-02-27T10:28:26.918Z,97602.19
2023-02-27T10:30:53.889Z,97612.78
2023-02-27T10:33:36.710Z,97603.22
2023-02-27T10:36:03.722Z,97595.69
2023-02-27T10:38:30.222Z,97612.06
2023-02-27T10:40:58.199Z,97607.91
2023-02-27T10:43:24.619Z,97596.94
2023-02-27T10:45:51.071Z,97577.50
2023-02-27T10:48:17.805Z,97599.44
2023-02-27T10:50:45.157Z,97609.97
2023-02-27T10:53:27.227Z,97606.34
2023-02-27T10:56:02.610Z,97607.59
2023-02-27T10:58:34.156Z,97587.41
2023-02-27T11:01:03.173Z,97602.41
2023-02-27T11:03:30.181Z,97599.19
2023-02-27T11:06:00.207Z,97614.03
2023-02-27T11:08:27.580Z,97614.38
2023-02-27T11:10:57.099Z,97571.59
2023-02-27T11:13:24.159Z,97593.47
2023-02-27T11:16:02.926Z,97583.63
2023-02-27T11:18:30.229Z,97580.66
2023-02-27T11:21:11.157Z,97584.75
2023-02-27T11:23:38.124Z,97599.63
2023-02-27T11:26:11.608Z,97582.28
2023-02-27T11:28:38.108Z,97573.75
2023-02-27T11:31:05.920Z,97586.84
2023-02-27T11:33:35.944Z,97589.56
2023-02-27T11:36:03.125Z,97577.34
2023-02-27T11:38:29.808Z,97573.50
2023-02-27T11:40:57.376Z,97552.03
2023-02-27T11:43:28.151Z,97580.28
2023-02-27T11:46:16.654Z,97561.25
2023-02-27T11:48:56.461Z,97561.34
2023-02-27T11:51:38.185Z,97566.59
2023-02-27T11:54:07.612Z,97571.94
2023-02-27T11:56:36.237Z,97560.97
2023-02-27T11:59:11.777Z,97568.38
2023-02-27T12:01:57.282Z,97555.97
2023-02-27T12:04:25.519Z,97543.44
2023-02-27T12:06:54.064Z,97572.69
2023-02-27T12:09:40.798Z,97562.06
2023-02-27T12:12:09.446Z,97551.97
2023-02-27T12:14:35.837Z,97545.38
2023-02-27T12:17:03.136Z,97541.06
2023-02-27T12:19:40.386Z,97534.28
2023-02-27T12:22:20.975Z,97542.16
2023-02-27T12:24:48.692Z,97551.34
2023-02-27T12:27:25.253Z,97540.84
2023-02-27T12:29:54.020Z,97534.63
2023-02-27T12:32:23.362Z,97531.03
2023-02-27T12:34:51.152Z,97536.66
2023-02-27T12:37:21.052Z,97539.16
2023-02-27T12:39:47.611Z,97520.06
2023-02-27T12:42:20.402Z,97539.59
2023-02-27T12:44:56.015Z,97533.22
2023-02-27T12:47:37.699Z,97513.78
2023-02-27T12:50:10.742Z,97520.28
2023-02-27T12:52:37.210Z,97522.69
2023-02-27T12:55:09.657Z,97521.34
2023-02-27T12:57:59.214Z,97527.50
2023-02-27T13:00:26.321Z,97499.94
2023-02-27T13:03:02.006Z,97539.91
2023-02-27T13:05:41.806Z,97513.94
2023-02-27T13:08:40.965Z,97536.63
2023-02-27T13:11:07.382Z,97529.25
2023-02-27T13:13:41.924Z,97509.38
2023-02-27T13:16:19.293Z,97535.41
2023-02-27T13:19:00.020Z,97504.63
2023-02-27T13:21:38.840Z,97504.13
2023-02-27T13:24:05.947Z,97521.88
2023-02-27T13:26:39.931Z,97524.09
2023-02-27T13:29:09.928Z,97513.50
2023-02-27T13:31:41.293Z,97494.72
2023-02-27T13:34:09.397Z,97510.53
2023-02-27T13:36:46.489Z,97530.47
2023-02-27T13:39:31.830Z,97510.06
2023-02-27T13:41:58.440Z,97528.16
2023-02-27T13:44:24.904Z,97515.19
2023-02-27T13:46:51.392Z,97510.84
2023-02-27T13:49:28.728Z,97511.22
2023-02-27T13:51:56.160Z,97519.53
2023-02-27T13:54:23.368Z,97522.47
2023-02-27T13:56:55.960Z,97496.19
2023-02-27T13:59:25.447Z,97495.66
2023-02-27T14:01:53.275Z,97532.56
2023-02-27T14:04:19.890Z,97510.81
2023-02-27T14:06:46.734Z,97509.41
2023-02-27T14:09:15.310Z,97505.00
2023-02-27T14:11:41.953Z,97524.69
2023-02-27T14:14:09.840Z,97503.03
2023-02-27T14:16:39.416Z,97520.88
2023-02-27T14:19:12.072Z,97526.53
2023-02-27T14:21:50.868Z,97505.69
2023-02-27T14:24:18.033Z,97520.06
2023-02-27T14:26:44.517Z,97529.97
2023-02-27T14:29:14.376Z,97474.44
2023-02-27T14:31:40.860Z,97503.38
2023-02-27T14:34:07.346Z,97501.63
2023-02-27T14:36:47.283Z,97508.34
2023-02-27T14:39:33.411Z,97512.97
2023-02-27T14:42:03.585Z,97533.44
2023-02-27T14:44:37.771Z,97484.31
2023-02-27T14:47:04.174Z,97517.91
2023-02-27T14:49:31.581Z,97494.91
2023-02-27T14:52:09.963Z,97506.63
2023-02-27T14:54:36.515Z,97524.69
2023-02-27T14:57:03.866Z,97519.81
2023-02-27T14:59:31.085Z,97530.31
2023-02-27T15:01:58.103Z,97502.41
2023-02-27T15:04:26.465Z,97531.78
2023-02-27T15:06:53.442Z,97525.63
2023-02-27T15:09:23.096Z,97545.22
2023-02-27T15:12:02.645Z,97543.63
2023-02-27T15:14:31.315Z,97530.91
2023-02-27T15:16:57.882Z,97553.44
2023-02-27T15:19:25.263Z,97539.28
2023-02-27T15:21:55.367Z,97535.34
2023-02-27T15:24:43.859Z,97521.16
2023-02-27T15:27:20.003Z,97542.28
2023-02-27T15:29:53.305Z,97555.28
2023-02-27T15:32:29.915Z,97559.50
2023-02-27T15:34:57.225Z,97532.34
2023-02-27T15:37:24.775Z,97548.16
2023-02-27T15:39:51.222Z,97541.56
2023-02-27T15:42:17.730Z,97546.06
2023-02-27T15:44:44.662Z,97549.53
2023-02-27T15:47:12.395Z,97546.50
2023-02-27T15:49:38.899Z,97545.06
2023-02-27T15:52:11.960Z,97556.84
2023-02-27T15:54:42.681Z,97576.72
2023-02-27T15:57:09.874Z,97541.09
2023-02-27T15:59:36.552Z,97537.25
2023-02-27T16:02:04.472Z,97569.34
2023-02-27T16:04:30.902Z,97551.38
2023-02-27T16:06:59.322Z,97552.47
2023-02-27T16:09:30.684Z,97598.81
2023-02-27T16:12:10.227Z,97595.06
2023-02-27T16:14:45.375Z,97572.84
2023-02-27T16:17:22.509Z,97606.38
2023-02-27T16:19:49.036Z,97585.34
2023-02-27T16:22:18.561Z,97592.13
2023-02-27T16:24:45.682Z,97612.81
2023-02-27T16:27:30.241Z,97613.66
2023-02-27T16:29:56.900Z,97632.28
2023-02-27T16:32:27.459Z,97595.97
2023-02-27T16:35:03.903Z,97608.75
2023-02-27T16:37:30.355Z,97604.81
2023-02-27T16:39:56.894Z,97606.16
2023-02-27T16:42:23.319Z,97606.09
2023-02-27T16:44:49.744Z,97622.34
2023-02-27T16:47:16.256Z,97621.19
2023-02-27T16:49:42.686Z,97615.09
2023-02-27T16:52:09.357Z,97609.97
2023-02-27T16:54:35.824Z,97625.00
2023-02-27T16:57:02.341Z,97597.88
2023-02-27T16:59:35.515Z,97619.47
2023-02-27T17:02:02.737Z,97636.78
2023-02-27T17:04:29.393Z,97634.69
2023-02-27T17:06:56.332Z,97617.69
2023-02-27T17:09:22.765Z,97627.25
2023-02-27T17:11:49.604Z,97639.72
2023-02-27T17:14:16.033Z,97658.09
2023-02-27T17:16:42.602Z,97639.97
2023-02-27T17:19:09.058Z,97654.88
2023-02-27T17:21:35.502Z,97663.47
2023-02-27T17:24:03.188Z,97642.03
2023-02-27T17:26:29.818Z,97653.53
2023-02-27T17:28:56.480Z,97671.72
2023-02-27T17:31:23.191Z,97660.31
2023-02-27T17:33:52.823Z,97667.63
2023-02-27T17:36:19.553Z,97669.50
2023-02-27T17:38:46.057Z,97679.72
2023-02-27T17:41:12.664Z,97670.34
2023-02-27T17:43:39.596Z,97680.13
2023-02-27T17:46:06.880Z,97678.03
2023-02-27T17:48:33.329Z,97683.38
2023-02-27T17:51:09.922Z,97683.81
2023-02-27T17:53:36.571Z,97673.03
2023-02-27T17:56:02.987Z,97669.13
2023-02-27T17:58:29.500Z,97673.03
2023-02-27T18:00:55.966Z,97686.50
2023-02-27T18:03:22.454Z,97670.59
2023-02-27T18:05:51.520Z,97690.97
2023-02-27T18:08:18.389Z,97686.09
2023-02-27T18:10:48.549Z,97700.19
2023-02-27T18:13:16.410Z,97676.91
2023-02-27T18:15:42.894Z,97706.47
2023-02-27T18:18:09.357Z,97677.72
2023-02-27T18:20:35.906Z,97702.81
2023-02-27T18:23:02.539Z,97721.56
2023-02-27T18:25:29.203Z,97724.44
2023-02-27T18:27:55.812Z,97681.41
2023-02-27T18:30:24.375Z,97676.69
2023-02-27T18:32:50.882Z,97719.53
2023-02-27T18:35:17.295Z,97697.09
2023-02-27T18:37:43.705Z,97724.63
2023-02-27T18:40:10.552Z,97693.84
2023-02-27T18:42:37.062Z,97704.63
2023-02-27T18:45:03.866Z,97713.41
2023-02-27T18:47:30.491Z,97715.44
2023-02-27T18:49:57.319Z,97731.34
2023-02-27T18:52:23.980Z,97723.41
2023-02-27T18:54:51.744Z,97717.50
2023-02-27T18:57:18.236Z,97711.97
2023-02-27T18:59:44.666Z,97720.13
2023-02-27T19:02:14.620Z,97726.88
2023-02-27T19:04:41.308Z,97717.09
2023-02-27T19:07:07.768Z,97726.84
2023-02-27T19:09:34.226Z,97751.50
2023-02-27T19:12:00.732Z,97722.78
2023-02-27T19:14:27.263Z,97724.00
2023-02-27T19:16:53.713Z,97735.44
2023-02-27T19:19:20.129Z,97731.34
2023-02-27T19:21:46.621Z,97722.59
2023-02-27T19:24:13.506Z,97745.81
2023-02-27T19:26:40.145Z,97728.28
2023-02-27T19:29:06.660Z,97752.72
2023-02-27T19:31:33.213Z,97715.47
2023-02-27T19:34:00.426Z,97714.44
2023-02-27T19:36:27.525Z,97751.91
2023-02-27T19:38:54.617Z,97722.78
2023-02-27T19:41:22.269Z,97748.66
2023-02-27T19:43:48.711Z,97744.56
2023-02-27T19:46:19.548Z,97720.50
2023-02-27T19:48:46.080Z,97707.09
2023-02-27T19:51:13.009Z,97737.66
2023-02-27T19:53:40.348Z,97738.22
2023-02-27T19:56:07.576Z,97730.69
2023-02-27T19:58:34.288Z,97710.91
2023-02-27T20:01:00.783Z,97716.41
2023-02-27T20:03:27.262Z,97729.03
2023-02-27T20:05:53.734Z,97714.78
2023-02-27T20:08:20.165Z,97729.44
2023-02-27T20:10:56.268Z,97742.50
2023-02-27T20:13:22.762Z,97744.34
2023-02-27T20:15:58.966Z,97725.38
2023-02-27T20:18:25.455Z,97728.44
2023-02-27T20:21:18.393Z,97734.94
2023-02-27T20:23:45.043Z,97738.56
2023-02-27T20:26:14.386Z,97701.13
2023-02-27T20:28:40.928Z,97717.44
2023-02-27T20:31:08.002Z,97692.56
2023-02-27T20:33:34.496Z,97701.53
2023-02-27T20:36:07.265Z,97719.06
2023-02-27T20:38:33.744Z,97735.97
2023-02-27T20:41:00.650Z,97725.38
2023-02-27T20:43:30.299Z,97747.97
2023-02-27T20:45:56.793Z,97720.06
2023-02-27T20:48:23.330Z,97737.31
2023-02-27T20:50:49.722Z,97690.06
2023-02-27T20:53:16.173Z,97722.63
2023-02-27T20:55:51.684Z,97730.41
2023-02-27T20:58:18.069Z,97722.03
2023-02-27T21:00:44.698Z,97730.53
2023-02-27T21:03:11.127Z,97717.34
2023-02-27T21:05:37.497Z,97708.59
2023-02-27T21:08:04.708Z,97700.63
2023-02-27T21:10:31.266Z,97712.22
2023-02-27T21:12:57.760Z,97706.72
2023-02-27T21:15:24.188Z,97719.94
2023-02-27T21:17:50.642Z,97707.03
2023-02-27T21:20:17.172Z,97711.97
2023-02-27T21:22:43.530Z,97717.66
2023-02-27T21:25:10.071Z,97684.88
2023-02-27T21:27:36.640Z,97705.44
2023-02-27T21:30:03.580Z,97707.81
2023-02-27T21:32:30.036Z,97718.59
2023-02-27T21:34:56.479Z,97691.53
2023-02-27T21:37:22.947Z,97700.69
2023-02-27T21:39:49.452Z,97718.94
2023-02-27T21:42:15.923Z,97720.00
2023-02-27T21:44:42.340Z,97689.78
2023-02-27T21:47:08.776Z,97708.75
2023-02-27T21:49:35.298Z,97702.44
2023-02-27T21:52:01.752Z,97709.91
2023-02-27T21:54:28.255Z,97692.63
2023-02-27T21:56:54.708Z,97695.91
2023-02-27T21:59:21.227Z,97680.03
2023-02-27T22:01:47.763Z,97690.28
2023-02-27T22:04:17.963Z,97683.16
2023-02-27T22:06:44.423Z,97651.50
2023-02-27T22:09:10.923Z,97691.53
2023-02-27T22:11:37.379Z,97665.88
2023-02-27T22:14:05.226Z,97679.72
2023-02-27T22:16:31.673Z,97684.78
2023-02-27T22:18:58.069Z,97682.88
2023-02-27T22:21:24.940Z,97683.13
2023-02-27T22:23:51.392Z,97685.00
2023-02-27T22:26:19.060Z,97689.16
2023-02-27T22:28:45.489Z,97680.28
2023-02-27T22:31:16.080Z,97696.50
2023-02-27T22:33:42.987Z,97683.34
2023-02-27T22:36:10.348Z,97702.63
2023-02-27T22:38:36.883Z,97688.78
2023-02-27T22:41:07.086Z,97684.56
2023-02-27T22:43:33.657Z,97678.25
2023-02-27T22:46:00.489Z,97684.19
2023-02-27T22:48:26.941Z,97667.88
2023-02-27T22:50:59.099Z,97678.59
2023-02-27T22:53:25.582Z,97678.56
2023-02-27T22:55:52.872Z,97683.06
2023-02-27T22:58:19.401Z,97687.81
2023-02-27T23:00:45.889Z,97671.97
2023-02-27T23:03:12.287Z,97681.56
2023-02-27T23:05:44.389Z,97677.94
2023-02-27T23:08:10.801Z,97653.75
2023-02-27T23:10:37.559Z,97673.09
2023-02-27T23:13:04.066Z,97660.44
2023-02-27T23:15:30.505Z,97676.72
2023-02-27T23:17:58.705Z,97665.31
2023-02-27T23:20:25.256Z,97668.34
2023-02-27T23:22:52.129Z,97681.25
2023-02-27T23:25:19.196Z,97676.53
2023-02-27T23:27:45.850Z,97654.19
2023-02-27T23:30:12.792Z,97654.34
2023-02-27T23:32:39.316Z,97668.34
2023-02-27T23:35:05.826Z,97668.50
2023-02-27T23:37:32.312Z,97625.81
2023-02-27T23:39:58.786Z,97664.81
2023-02-27T23:42:25.200Z,97668.00
2023-02-27T23:44:51.652Z,97645.22
2023-02-27T23:47:18.043Z,97636.31
2023-02-27T23:49:44.458Z,97647.88
2023-02-27T23:52:10.893Z,97652.31
2023-02-27T23:54:37.321Z,97655.91
2023-02-27T23:57:03.833Z,97633.13
2023-02-27T23:59:30.373Z,97673.94
